Nearby METAR Reports

 

KMQS - Coatesville, Pennsylvania, USA
Distance from station: NW 12mi, 19km
Updated: Fri, 17-Jan-2020 6:35pm EST
Clear
Clear
 Wind from NW
Wind: NW 8 mph , 13 km/h
Temperature: 25°F , -4°C
Wind Chill: 16°F , -9°C
Dew Point: 7°F , -14°C
Humidity: 46%
Barometer: 30.69 inHg , 1039.3 hPa
Clouds: Clear
Visibility: 10 miles , 16 km
2020/01/17 23:35 KMQS 172335Z AUTO 32007KT 10SM CLR M04/M14 A3069 RMK AO2
KOQN - West Chester, Pennsylvania, USA
Distance from station: NE 13mi, 21km
Updated: Fri, 17-Jan-2020 6:55pm EST
Clear
Clear
 Wind from NW
Wind: NW 5 mph , 7 km/h
Temperature: 28°F , -2°C
Wind Chill: 22°F , -6°C
Dew Point: 5°F , -15°C
Humidity: 37%
Barometer: 30.69 inHg , 1039.3 hPa
Clouds: Clear
Visibility: 10 miles , 16 km
2020/01/17 23:55 KOQN 172355Z AUTO 31004KT 10SM CLR M02/M15 A3069 RMK AO2
 
KILG - Wilmington, Delaware, USA
Distance from station: SSE 14mi, 23km
Updated: Fri, 17-Jan-2020 6:51pm EST
Clear
Clear
 Wind from NW
Wind: NW 9 mph , 15 km/h
Temperature: 25°F , -4°C
Wind Chill: 16°F , -9°C
Dew Point: 7°F , -14°C
Humidity: 46%
Barometer: 30.72 inHg , 1040.3 hPa
Clouds: Clear
Visibility: 10 miles , 16 km
2020/01/17 23:51 KILG 172351Z 31008KT 10SM CLR M04/M14 A3072 RMK AO2 SLP404 T10391139 10011 21039 51010
KPHL - Philadelphia, Pennsylvania, USA
Distance from station: E 27mi, 43km
Updated: Fri, 17-Jan-2020 6:54pm EST
Mostly cloudy
Mostly cloudy
 Wind from NNW
Wind: NNW 6 mph , 9 km/h
Temperature: 27°F , -3°C
Wind Chill: 20°F , -7°C
Dew Point: 1°F , -17°C
Humidity: 33%
Barometer: 30.71 inHg , 1040 hPa
Clouds: Mostly cloudy
Visibility: 10 miles , 16 km
Cloud details: Mostly cloudy 25000 ft
2020/01/17 23:54 KPHL 172354Z 34005KT 10SM BKN250 M03/M17 A3071 RMK AO2 SLP400 T10281172 10006 21028 50009 $
 
KPTW - Pottstown, Pennsylvania, USA
Distance from station: NNE 29mi, 47km
Updated: Fri, 17-Jan-2020 6:54pm EST
Clear
Clear
 Wind from N
Wind: N 7 mph , 11 km/h
Temperature: 21°F , -6°C
Wind Chill: 12°F , -11°C
Dew Point: 3°F , -16°C
Humidity: 45%
Barometer: 30.72 inHg , 1040.3 hPa
Clouds: Clear
Visibility: 10 miles , 16 km
2020/01/17 23:54 KPTW 172354Z AUTO 36006KT 10SM CLR M06/M16 A3072 RMK AO2 SLP404 T10561161 11017 21056 53009
KLOM - Philly Wings F, Pennsylvania, USA
Distance from station: NE 32mi, 52km
Updated: Fri, 17-Jan-2020 6:55pm EST
Clear
Clear
 Wind from calm
Wind: Calm
Temperature: 25°F , -4°C
Dew Point: 5°F , -15°C
Humidity: 42%
Barometer: 30.70 inHg , 1039.6 hPa
Clouds: Clear
Visibility: 10 miles , 16 km
2020/01/17 23:55 KLOM 172355Z AUTO 00000KT 10SM CLR M04/M15 A3070 RMK AO2 T10441151 11011 21045 400431048
 
KAPG - Aberdeen/Phillip, Maryland, USA
Distance from station: SW 34mi, 55km
Updated: Fri, 17-Jan-2020 5:58pm EST
Clear
Clear
 Wind from N
Wind: N 3 mph , 6 km/h
Temperature: 28°F , -2°C
Dew Point: 5°F , -15°C
Humidity: 37%
Barometer: 30.72 inHg , 1040.3 hPa
Clouds: Clear
Visibility: 10 miles , 16 km
2020/01/17 22:58 KAPG 172258Z AUTO 36003KT 10SM CLR M02/M15 A3072 RMK AO2 SLP407 T10241152 PNO TSNO $
KLNS - Lancaster, Pennsylvania, USA
Distance from station: WNW 35mi, 57km
Updated: Fri, 17-Jan-2020 6:53pm EST
Clear
Clear
 Wind from NW
Wind: NW 6 mph , 9 km/h
Temperature: 25°F , -4°C
Wind Chill: 18°F , -8°C
Dew Point: 9°F , -13°C
Humidity: 50%
Barometer: 30.72 inHg , 1040.3 hPa
Clouds: Clear
Visibility: 10 miles , 16 km
2020/01/17 23:53 KLNS 172353Z 31005KT 10SM CLR M04/M13 A3072 RMK AO2 SLP408 T10441133 11006 21056 53010
 
KRDG - Reading, Pennsylvania, USA
Distance from station: NNW 38mi, 62km
Updated: Fri, 17-Jan-2020 6:54pm EST
Clear
Clear
 Wind from WNW
Wind: WNW 7 mph , 11 km/h
Temperature: 25°F , -4°C
Wind Chill: 17°F , -8°C
Dew Point: 5°F , -15°C
Humidity: 42%
Barometer: 30.70 inHg , 1039.6 hPa
Clouds: Clear
Visibility: 10 miles , 16 km
2020/01/17 23:54 KRDG 172354Z 29006KT 10SM CLR M04/M15 A3070 RMK AO2 SLP408 T10391150 11011 21050 53010
KPNE - Philadelphia/Ne, Pennsylvania, USA
Distance from station: ENE 42mi, 67km
Updated: Fri, 17-Jan-2020 6:54pm EST
Clear
Clear
 Wind from N
Wind: N 8 mph , 13 km/h
Temperature: 27°F , -3°C
Wind Chill: 19°F , -7°C
Dew Point: 3°F , -16°C
Humidity: 36%
Barometer: 30.72 inHg , 1040.3 hPa
Clouds: Clear
Visibility: 10 miles , 16 km
2020/01/17 23:54 KPNE 172354Z 36007KT 10SM CLR M03/M16 A3072 RMK AO2 SLP403 T10281161 10011 21033 51010
 
KCKZ - Perkasie, Pennsylvania, USA
Distance from station: NNE 45mi, 72km
Updated: Fri, 17-Jan-2020 6:55pm EST
Clear
Clear
 Wind from NNW
Wind: NNW 6 mph , 9 km/h
Temperature: 23°F , -5°C
Wind Chill: 16°F , -9°C
Dew Point: 1°F , -17°C
Humidity: 39%
Barometer: 30.69 inHg , 1039.3 hPa
Clouds: Clear
Visibility: 10 miles , 16 km
2020/01/17 23:55 KCKZ 172355Z AUTO 33005KT 10SM CLR M05/M17 A3069 RMK AO2
KUKT - Quakertown Arp, Pennsylvania, USA
Distance from station: NNE 45mi, 73km
Updated: Fri, 17-Jan-2020 6:55pm EST
Clear
Clear
 Wind from NNW
Wind: NNW 7 mph , 11 km/h
Temperature: 21°F , -6°C
Wind Chill: 12°F , -11°C
Dew Point: 1°F , -17°C
Humidity: 42%
Barometer: 30.69 inHg , 1039.3 hPa
Clouds: Clear
Visibility: 10 miles , 16 km
2020/01/17 23:55 KUKT 172355Z AUTO 34006KT 10SM CLR M06/M17 A3069 RMK A01
 
KDYL - Doylestown, Pennsylvania, USA
Distance from station: NE 47mi, 76km
Updated: Fri, 17-Jan-2020 6:54pm EST
Clear
Clear
 Wind from NNW
Wind: NNW 6 mph , 9 km/h
Temperature: 25°F , -4°C
Wind Chill: 18°F , -8°C
Dew Point: 1°F , -17°C
Humidity: 36%
Barometer: 30.68 inHg , 1038.9 hPa
Clouds: Clear
Visibility: 10 miles , 16 km
2020/01/17 23:54 KDYL 172354Z AUTO 33005KT 10SM CLR M04/M17 A3068 RMK AO2 SLP401 T10441167 10006 21044 51011
KMIV - Millville, New Jersey, USA
Distance from station: SE 48mi, 77km
Updated: Fri, 17-Jan-2020 6:54pm EST
Clear
Clear
 Wind from NNW
Wind: NNW 3 mph , 6 km/h
Temperature: 23°F , -5°C
Dew Point: 5°F , -15°C
Humidity: 46%
Barometer: 30.70 inHg , 1039.6 hPa
Clouds: Clear
Visibility: 10 miles , 16 km
2020/01/17 23:54 KMIV 172354Z AUTO 33003KT 10SM CLR M05/M15 A3070 RMK AO2 SLP394 T10501150 10011 21050 51009
 
KVAY - Mount Holly, New Jersey, USA
Distance from station: E 48mi, 78km
Updated: Fri, 17-Jan-2020 6:54pm EST
Clear
Clear
 Wind from NNW
Wind: NNW 8 mph , 13 km/h
Temperature: 27°F , -3°C
Wind Chill: 19°F , -7°C
Dew Point: 3°F , -16°C
Humidity: 36%
Barometer: 30.70 inHg , 1039.6 hPa
Clouds: Clear
Visibility: 10 miles , 16 km
2020/01/17 23:54 KVAY 172354Z AUTO 33007KT 10SM CLR M03/M16 A3070 RMK AO2 SLP397 T10281156 10006 21033 51012